CheckWX is a tool to help pilots better visualize weather data.  It is not intended as a substitute for an official pre-flight weather briefing.

00:11:59 UTC

KCCA METAR
Clinton Municipal Airport
Clinton, Arkansas, USA
Current

17 mins ago

KCCA 222355Z AUTO 00000KT 10SM CLR 12/07 A3008 RMK AO2
Observed
Oct-22 @ 23:55 UTC
Visibility
10 SM
Flight Rules
VFR
Cloud Levels
  • Clear skies
Temperature
12°C / 54°F
Dewpoint
C / 45°F
Humidity
72%
Altimeter
30.08" Hg
Pressure
1018.62 hPa
Previous

37 mins ago

KCCA 222335Z AUTO 22003KT 10SM CLR 14/05 A3008 RMK AO2
Observed
Oct-22 @ 23:35 UTC
Wind
  • 220° at 3 KTS
Visibility
10 SM
Flight Rules
VFR
Cloud Levels
  • Clear skies
Temperature
14°C / 57°F
Dewpoint
C / 41°F
Humidity
55%
Altimeter
30.08" Hg
Pressure
1018.62 hPa
Previous

57 mins ago

KCCA 222315Z AUTO 25004KT 10SM CLR 16/03 A3007 RMK AO2
Observed
Oct-22 @ 23:15 UTC
Wind
  • 250° at 4 KTS
Visibility
10 SM
Flight Rules
VFR
Cloud Levels
  • Clear skies
Temperature
16°C / 61°F
Dewpoint
C / 37°F
Humidity
42%
Altimeter
30.07" Hg
Pressure
1018.32 hPa